Time;durP1;ratioP1;P1;durP2;ratioP2;P2;SDS_P1;SDS_P2;PMS_P1;PMS_P2;Temp;Humidity;BMP_temperature;BMP_pressure;BME280_temperature;BME280_humidity;BME280_pressure;Samples;Min_cycle;Max_cycle;Signal;HPM_P1;HPM_P2
2022/01/31 00:01:40;;;;;;;24.50;8.18;;;;;;;3.45;100.00;101532.97;5325463;27;20538;-85
2022/01/31 00:04:11;;;;;;;24.90;7.40;;;;;;;3.56;100.00;101513.97;5325036;27;20024;-85
2022/01/31 00:06:47;;;;;;;23.42;7.60;;;;;;;3.57;100.00;101491.91;5323177;28;20051;-85
2022/01/31 00:09:19;;;;;;;24.40;7.00;;;;;;;3.52;100.00;101462.28;5324702;27;20084;-85
2022/01/31 00:12:10;;;;;;;21.85;7.13;;;;;;;3.51;100.00;101442.13;5325380;27;20032;-85
2022/01/31 00:14:44;;;;;;;22.63;7.32;;;;;;;3.60;100.00;101453.03;5322581;28;20302;-85
2022/01/31 00:17:17;;;;;;;24.27;7.47;;;;;;;3.65;100.00;101447.50;5324525;27;20480;-85
2022/01/31 00:19:48;;;;;;;20.35;6.32;;;;;;;3.66;100.00;101451.00;5323850;27;20028;-85
2022/01/31 00:22:19;;;;;;;16.63;6.22;;;;;;;3.69;100.00;101429.72;5324381;27;20016;-85
2022/01/31 00:24:51;;;;;;;27.55;7.72;;;;;;;3.72;100.00;101438.31;5324119;28;20027;-85
2022/01/31 00:27:22;;;;;;;20.98;7.75;;;;;;;3.75;100.00;101416.19;5324823;27;20107;-85
2022/01/31 00:29:53;;;;;;;21.88;6.47;;;;;;;3.71;100.00;101407.59;5320186;27;20078;-85
2022/01/31 00:32:27;;;;;;;18.00;6.50;;;;;;;3.80;100.00;101403.59;5324075;27;20472;-85
2022/01/31 00:34:59;;;;;;;16.60;6.63;;;;;;;3.68;100.00;101388.44;5322922;27;20028;-84
2022/01/31 00:37:30;;;;;;;30.10;8.18;;;;;;;3.70;100.00;101373.34;5324091;27;20502;-85
2022/01/31 00:40:04;;;;;;;18.25;6.35;;;;;;;3.72;100.00;101366.25;5324195;27;20028;-85
2022/01/31 00:42:36;;;;;;;18.88;6.80;;;;;;;3.66;100.00;101348.94;5321366;27;20171;-85
2022/01/31 00:47:59;;;;;;;17.33;6.20;;;;;;;3.55;100.00;101320.53;5320348;27;20082;-85
2022/01/31 00:50:38;;;;;;;22.98;7.72;;;;;;;3.51;100.00;101329.56;5323407;27;20024;-84
2022/01/31 00:53:10;;;;;;;25.40;7.93;;;;;;;3.42;100.00;101316.88;5322923;27;20032;-85
2022/01/31 00:55:41;;;;;;;22.95;7.57;;;;;;;3.38;100.00;101315.31;5323407;27;20024;-85
2022/01/31 00:58:12;;;;;;;25.58;8.07;;;;;;;3.27;100.00;101281.63;5322198;27;20035;-85
2022/01/31 01:00:44;;;;;;;30.10;10.43;;;;;;;3.34;100.00;101290.91;5338566;27;20465;-85
2022/01/31 01:03:15;;;;;;;21.48;7.55;;;;;;;3.32;100.00;101262.94;5322533;27;20028;-85
2022/01/31 01:05:47;;;;;;;30.75;9.68;;;;;;;3.29;100.00;101249.91;5322107;27;20391;-85
2022/01/31 01:08:18;;;;;;;29.63;9.80;;;;;;;3.37;100.00;101261.75;5320279;27;20039;-85
2022/01/31 01:10:50;;;;;;;30.10;7.80;;;;;;;3.34;100.00;101261.06;5323168;27;20018;-85
2022/01/31 01:13:21;;;;;;;29.77;9.93;;;;;;;3.34;100.00;101235.53;5322443;27;20028;-85
2022/01/31 01:15:52;;;;;;;31.58;9.68;;;;;;;3.33;100.00;101227.72;5323227;27;20020;-85
2022/01/31 01:18:23;;;;;;;29.45;10.18;;;;;;;3.34;100.00;101219.72;5322137;27;20435;-85
2022/01/31 01:20:55;;;;;;;26.92;10.00;;;;;;;3.31;100.00;101214.59;5323230;27;20024;-85
2022/01/31 01:23:26;;;;;;;32.47;10.77;;;;;;;3.32;100.00;101186.47;5323547;27;20493;-85
2022/01/31 01:25:57;;;;;;;25.25;8.60;;;;;;;3.30;100.00;101185.72;5323267;27;20360;-85
2022/01/31 01:28:29;;;;;;;29.25;9.85;;;;;;;3.33;100.00;101174.97;5315309;28;20124;-85
2022/01/31 01:31:01;;;;;;;34.38;12.02;;;;;;;3.34;100.00;101156.44;5322613;27;20028;-85
2022/01/31 01:33:38;;;;;;;30.25;11.57;;;;;;;3.34;100.00;101164.34;5323708;27;20028;-86
2022/01/31 01:36:10;;;;;;;31.88;10.63;;;;;;;3.33;100.00;101157.38;5323742;27;20063;-85
2022/01/31 01:38:41;;;;;;;32.30;11.73;;;;;;;3.35;100.00;101152.88;5322526;27;20044;-85
2022/01/31 01:41:13;;;;;;;31.73;12.68;;;;;;;3.32;100.00;101131.94;5325051;27;20031;-85
2022/01/31 01:43:44;;;;;;;39.50;12.30;;;;;;;3.43;100.00;101135.75;5324202;27;20078;-86
2022/01/31 01:46:15;;;;;;;31.52;10.30;;;;;;;3.35;100.00;101125.66;5324922;27;20029;-85
2022/01/31 01:48:47;;;;;;;41.13;14.90;;;;;;;3.26;100.00;101116.50;5324673;27;20496;-85
2022/01/31 01:51:18;;;;;;;39.35;12.93;;;;;;;3.36;100.00;101115.00;5326072;27;20040;-86
2022/01/31 01:53:49;;;;;;;39.03;12.80;;;;;;;3.34;100.00;101087.88;5325814;27;20035;-86
2022/01/31 01:56:21;;;;;;;33.38;13.80;;;;;;;3.40;100.00;101073.47;5325537;28;20019;-85
2022/01/31 01:58:52;;;;;;;35.67;12.52;;;;;;;3.44;100.00;101069.72;5327959;28;20036;-86
2022/01/31 02:01:23;;;;;;;30.95;10.93;;;;;;;3.42;100.00;101058.44;5324868;27;20024;-85
2022/01/31 02:03:54;;;;;;;34.95;12.40;;;;;;;3.49;100.00;101040.44;5323976;27;20020;-85
2022/01/31 02:06:26;;;;;;;31.98;13.82;;;;;;;3.51;100.00;101028.88;5324561;27;20044;-86
2022/01/31 02:08:57;;;;;;;27.52;13.00;;;;;;;3.60;100.00;101045.94;5324094;28;20314;-85
2022/01/31 02:11:28;;;;;;;28.75;12.73;;;;;;;3.64;100.00;101025.47;5325041;27;20127;-85
2022/01/31 02:14:00;;;;;;;30.88;11.80;;;;;;;3.66;100.00;101028.88;5324701;27;20091;-85
2022/01/31 02:16:32;;;;;;;27.65;10.77;;;;;;;3.71;100.00;101038.19;5327293;27;20024;-85
2022/01/31 02:19:03;;;;;;;25.00;9.77;;;;;;;3.69;100.00;101011.06;5328821;27;20028;-85
2022/01/31 02:21:35;;;;;;;25.45;10.60;;;;;;;3.70;100.00;101020.69;5330317;27;20117;-85
2022/01/31 02:24:06;;;;;;;24.65;9.52;;;;;;;3.72;100.00;100995.06;5328787;27;20040;-86
2022/01/31 02:26:37;;;;;;;25.80;9.57;;;;;;;3.63;100.00;100978.94;5323576;27;20530;-85
2022/01/31 02:29:11;;;;;;;24.92;11.02;;;;;;;3.78;100.00;101007.84;5329448;27;20028;-85
2022/01/31 02:31:44;;;;;;;28.45;10.50;;;;;;;3.81;100.00;101006.84;5325008;28;20502;-86
2022/01/31 02:34:16;;;;;;;16.38;6.78;;;;;;;3.87;100.00;101005.59;5329920;27;20063;-85
2022/01/31 02:36:48;;;;;;;19.60;10.57;;;;;;;3.89;100.00;101006.34;5326738;27;20139;-86
2022/01/31 02:39:19;;;;;;;20.38;9.85;;;;;;;3.93;100.00;101007.88;5329598;27;20453;-86
2022/01/31 02:41:50;;;;;;;27.50;10.80;;;;;;;3.90;100.00;100993.06;5325479;27;20024;-85
2022/01/31 02:44:23;;;;;;;24.77;13.38;;;;;;;4.04;100.00;100967.59;5330112;27;20077;-85
2022/01/31 02:46:55;;;;;;;24.33;14.02;;;;;;;4.06;100.00;100963.06;5322600;27;20058;-86
2022/01/31 02:49:34;;;;;;;19.33;10.20;;;;;;;4.08;100.00;100974.38;5328909;27;20062;-85
2022/01/31 02:52:06;;;;;;;23.42;12.60;;;;;;;4.19;100.00;100961.34;5329612;27;20318;-85
2022/01/31 02:54:37;;;;;;;15.48;10.18;;;;;;;4.09;100.00;100965.53;5329890;27;20124;-85
2022/01/31 02:57:08;;;;;;;19.13;8.98;;;;;;;4.17;100.00;100947.38;5328776;27;20091;-86
2022/01/31 02:59:40;;;;;;;15.73;8.07;;;;;;;4.20;100.00;100951.63;5329331;27;20065;-85
2022/01/31 03:02:11;;;;;;;16.25;10.13;;;;;;;4.15;100.00;100946.63;5327941;27;20035;-85
2022/01/31 03:04:43;;;;;;;14.27;8.07;;;;;;;4.31;100.00;100941.22;5325188;27;20028;-86
2022/01/31 03:07:14;;;;;;;22.88;9.73;;;;;;;4.40;100.00;100942.41;5327179;27;20046;-86
2022/01/31 03:09:45;;;;;;;22.98;8.95;;;;;;;4.37;100.00;100958.47;5326738;28;20078;-86
2022/01/31 03:12:17;;;;;;;17.33;7.05;;;;;;;4.46;100.00;100949.94;5326972;27;20593;-86
2022/01/31 03:14:49;;;;;;;17.15;8.25;;;;;;;4.46;100.00;100953.41;5327019;27;20423;-85
2022/01/31 03:17:20;;;;;;;17.05;7.70;;;;;;;4.54;100.00;100937.06;5326851;27;20025;-86
2022/01/31 03:19:54;;;;;;;15.63;6.60;;;;;;;4.60;100.00;100944.59;5323768;27;20106;-86
2022/01/31 03:22:25;;;;;;;12.43;6.10;;;;;;;4.58;100.00;100932.44;5326391;27;20024;-86
2022/01/31 03:24:57;;;;;;;19.40;6.50;;;;;;;4.62;100.00;100912.78;5326077;27;20502;-86
2022/01/31 03:27:28;;;;;;;19.48;7.35;;;;;;;4.64;100.00;100926.75;5325278;28;20229;-86
2022/01/31 03:29:59;;;;;;;10.70;3.45;;;;;;;4.62;100.00;100920.72;5327873;27;20369;-86
2022/01/31 03:32:31;;;;;;;19.60;6.40;;;;;;;4.64;100.00;100926.75;5325804;28;41701;-86
2022/01/31 03:35:04;;;;;;;19.20;5.65;;;;;;;4.69;100.00;100916.72;5327016;27;20472;-87
2022/01/31 03:37:36;;;;;;;20.20;4.85;;;;;;;4.60;100.00;100912.88;5329579;27;20114;-86
2022/01/31 03:40:08;;;;;;;22.80;6.78;;;;;;;4.69;100.00;100914.06;5327699;27;20498;-87
2022/01/31 03:42:40;;;;;;;25.13;5.63;;;;;;;4.63;100.00;100906.53;5328763;27;20052;-87
2022/01/31 03:45:11;;;;;;;27.45;6.30;;;;;;;4.67;100.00;100895.66;5326079;28;20064;-86
2022/01/31 03:47:46;;;;;;;24.30;6.30;;;;;;;4.70;100.00;100889.34;5326298;28;20531;-86
2022/01/31 03:50:18;;;;;;;20.05;4.03;;;;;;;4.75;100.00;100887.22;5325883;27;20463;-86
2022/01/31 03:52:52;;;;;;;17.25;4.03;;;;;;;4.76;100.00;100888.09;5325708;28;20070;-87
2022/01/31 03:55:23;;;;;;;23.58;5.05;;;;;;;4.75;100.00;100889.84;5327695;28;20094;-87
2022/01/31 03:57:55;;;;;;;22.65;4.00;;;;;;;4.83;100.00;100892.00;5327330;27;20488;-86
2022/01/31 04:00:27;;;;;;;19.90;4.75;;;;;;;4.72;100.00;100903.31;5328784;27;20407;-87
2022/01/31 04:02:58;;;;;;;20.15;3.05;;;;;;;4.76;100.00;100902.13;5327217;27;20031;-86
2022/01/31 04:05:31;;;;;;;28.45;5.00;;;;;;;4.83;100.00;100906.06;5327886;27;20349;-86
2022/01/31 04:08:03;;;;;;;17.13;3.47;;;;;;;4.79;100.00;100901.09;5326697;27;20058;-86
2022/01/31 04:10:36;;;;;;;21.13;3.63;;;;;;;4.90;100.00;100899.41;5324890;27;20031;-86
2022/01/31 04:13:08;;;;;;;25.55;3.88;;;;;;;4.92;100.00;100897.50;5326773;27;20356;-87
2022/01/31 04:15:39;;;;;;;17.55;3.88;;;;;;;4.83;100.00;100897.28;5326072;28;20050;-86
2022/01/31 04:18:11;;;;;;;19.77;3.40;;;;;;;4.79;100.00;100888.72;5327822;27;20024;-86
2022/01/31 04:20:42;;;;;;;13.38;3.28;;;;;;;4.82;100.00;100882.38;5327935;27;20020;-87
2022/01/31 04:23:18;;;;;;;18.30;2.88;;;;;;;4.85;100.00;100887.44;5327899;27;20024;-86
2022/01/31 04:28:29;;;;;;;10.82;2.47;;;;;;;4.86;100.00;100883.88;5326553;27;20078;-86
2022/01/31 04:31:13;;;;;;;17.20;3.92;;;;;;;4.75;100.00;100871.34;5325436;27;20384;-86
2022/01/31 04:33:45;;;;;;;19.95;2.60;;;;;;;4.80;100.00;100866.59;5327162;27;20080;-87
2022/01/31 04:36:18;;;;;;;18.98;3.20;;;;;;;4.80;100.00;100874.53;5327689;27;20056;-86
2022/01/31 04:38:49;;;;;;;16.95;3.17;;;;;;;4.89;100.00;100863.38;5324534;28;20040;-86
2022/01/31 04:41:21;;;;;;;15.73;2.67;;;;;;;4.85;100.00;100861.03;5327710;27;20472;-87
2022/01/31 04:43:55;;;;;;;15.80;3.10;;;;;;;4.84;100.00;100864.59;5327248;27;20020;-86
2022/01/31 04:46:27;;;;;;;20.00;3.03;;;;;;;4.76;100.00;100865.13;5327014;27;20066;-86
2022/01/31 04:48:58;;;;;;;14.73;2.33;;;;;;;4.71;100.00;100851.38;5325641;27;20056;-87
2022/01/31 04:51:29;;;;;;;16.80;2.63;;;;;;;4.71;100.00;100864.59;5325471;27;20417;-86
2022/01/31 04:54:00;;;;;;;13.88;3.25;;;;;;;4.69;100.00;100855.94;5321496;28;20077;-86
2022/01/31 04:56:32;;;;;;;14.25;2.90;;;;;;;4.69;100.00;100871.78;5324739;27;20024;-86
2022/01/31 04:59:03;;;;;;;14.50;2.42;;;;;;;4.69;100.00;100872.63;5325139;27;20473;-86
2022/01/31 05:01:37;;;;;;;16.25;2.67;;;;;;;4.64;100.00;100865.97;5324214;27;20020;-86
2022/01/31 05:04:09;;;;;;;16.77;2.70;;;;;;;4.60;100.00;100857.41;5324914;27;20032;-86
2022/01/31 05:06:43;;;;;;;16.27;2.38;;;;;;;4.69;100.00;100869.97;5324384;27;20040;-86
2022/01/31 05:09:15;;;;;;;17.45;2.97;;;;;;;4.60;100.00;100867.13;5323413;28;20039;-86
2022/01/31 05:11:46;;;;;;;10.18;2.25;;;;;;;4.70;100.00;100849.72;5325377;27;20476;-86
2022/01/31 05:14:18;;;;;;;13.45;2.25;;;;;;;4.71;100.00;100848.75;5323538;28;20096;-86
2022/01/31 05:16:49;;;;;;;19.17;3.03;;;;;;;4.55;100.00;100839.22;5321339;27;20452;-87
2022/01/31 05:19:20;;;;;;;9.90;2.25;;;;;;;4.66;100.00;100835.88;5323904;27;20365;-86
2022/01/31 05:21:52;;;;;;;17.33;2.97;;;;;;;4.69;100.00;100837.44;5324415;28;20441;-86
2022/01/31 05:24:23;;;;;;;20.55;3.00;;;;;;;4.63;100.00;100828.13;5323364;27;20024;-86
2022/01/31 05:26:54;;;;;;;19.75;2.55;;;;;;;4.61;100.00;100840.63;5324032;27;20019;-86
2022/01/31 05:29:25;;;;;;;20.70;2.58;;;;;;;4.59;100.00;100808.16;5324006;28;20145;-86
2022/01/31 05:31:57;;;;;;;16.77;2.75;;;;;;;4.70;100.00;100816.19;5321415;28;20048;-86
2022/01/31 05:34:28;;;;;;;24.38;4.32;;;;;;;4.66;100.00;100809.44;5323765;27;20039;-86
2022/01/31 05:36:59;;;;;;;17.40;2.28;;;;;;;4.76;100.00;100817.56;5324582;27;20020;-86
2022/01/31 05:39:31;;;;;;;14.95;3.72;;;;;;;4.82;100.00;100803.06;5323804;27;20028;-86
2022/01/31 05:42:02;;;;;;;16.95;2.50;;;;;;;4.85;100.00;100802.88;5323251;27;20366;-86
2022/01/31 05:44:33;;;;;;;17.52;3.08;;;;;;;4.86;100.00;100796.66;5323623;27;20085;-86
2022/01/31 05:47:05;;;;;;;16.63;2.90;;;;;;;4.84;100.00;100785.31;5320835;28;42336;-85
2022/01/31 05:49:38;;;;;;;17.48;3.05;;;;;;;4.69;100.00;100790.72;5324396;28;20028;-86
2022/01/31 05:52:10;;;;;;;20.92;3.40;;;;;;;4.83;100.00;100778.34;5326190;28;20047;-86
2022/01/31 05:54:41;;;;;;;18.67;4.05;;;;;;;4.74;100.00;100793.06;5326291;27;20953;-86
2022/01/31 05:57:12;;;;;;;22.00;2.97;;;;;;;4.62;100.00;100797.38;5326388;27;20484;-85
2022/01/31 05:59:44;;;;;;;16.80;4.28;;;;;;;4.66;100.00;100808.56;5324296;27;20154;-86
2022/01/31 06:02:15;;;;;;;16.00;3.35;;;;;;;4.55;100.00;100811.97;5324274;27;20032;-86
2022/01/31 06:04:46;;;;;;;15.45;2.92;;;;;;;4.49;100.00;100825.59;5314656;28;20157;-86
2022/01/31 06:07:18;;;;;;;19.80;3.05;;;;;;;4.41;100.00;100827.91;5325665;27;20036;-86
2022/01/31 06:09:49;;;;;;;19.05;2.92;;;;;;;4.24;100.00;100816.66;5327388;27;20381;-86
2022/01/31 06:12:20;;;;;;;20.30;3.67;;;;;;;4.25;100.00;100830.72;5327683;27;20024;-86
2022/01/31 06:14:52;;;;;;;16.70;3.17;;;;;;;4.16;100.00;100840.09;5324267;27;20020;-86
2022/01/31 06:17:23;;;;;;;22.95;3.20;;;;;;;4.14;100.00;100844.63;5324862;28;20027;-86
2022/01/31 06:19:54;;;;;;;23.90;3.25;;;;;;;4.07;100.00;100844.19;5306087;28;20094;-86
2022/01/31 06:22:26;;;;;;;18.17;3.58;;;;;;;4.01;100.00;100843.72;5325459;28;20555;-85
2022/01/31 06:24:57;;;;;;;21.20;3.22;;;;;;;4.00;100.00;100828.81;5327628;27;20077;-86
2022/01/31 06:27:28;;;;;;;18.55;2.97;;;;;;;4.06;100.00;100839.00;5325531;28;20072;-86
2022/01/31 06:29:59;;;;;;;19.50;2.92;;;;;;;4.19;100.00;100839.03;5323686;27;20109;-86
2022/01/31 06:32:31;;;;;;;15.88;3.10;;;;;;;4.08;100.00;100837.94;5328558;27;20024;-86
2022/01/31 06:35:03;;;;;;;10.30;2.88;;;;;;;4.19;100.00;100842.53;5326806;27;20364;-86
2022/01/31 06:37:36;;;;;;;15.18;2.50;;;;;;;4.30;100.00;100824.19;5327287;27;20016;-85
2022/01/31 06:40:08;;;;;;;13.18;1.92;;;;;;;4.37;100.00;100819.34;5326404;27;20016;-85
2022/01/31 06:42:40;;;;;;;11.05;2.22;;;;;;;4.15;100.00;100814.63;5326559;27;20032;-85
2022/01/31 06:45:11;;;;;;;13.38;3.20;;;;;;;4.08;100.00;100822.09;5325855;28;20039;-86
2022/01/31 06:47:42;;;;;;;17.85;2.47;;;;;;;4.13;100.00;100827.09;5327742;27;20028;-86
2022/01/31 06:50:14;;;;;;;21.73;3.63;;;;;;;4.16;100.00;100837.44;5324934;28;20043;-85
2022/01/31 06:52:49;;;;;;;17.73;3.13;;;;;;;4.33;100.00;100825.75;5335791;27;20028;-86
2022/01/31 06:55:21;;;;;;;18.13;2.90;;;;;;;4.31;100.00;100822.38;5333196;27;20051;-85
2022/01/31 06:57:52;;;;;;;20.20;3.33;;;;;;;4.19;100.00;100831.09;5341327;28;20020;-86
2022/01/31 07:00:24;;;;;;;14.95;2.92;;;;;;;4.20;100.00;100822.25;5338094;28;20021;-85
2022/01/31 07:02:55;;;;;;;24.02;2.85;;;;;;;4.13;100.00;100827.09;5333938;28;20703;-86
2022/01/31 07:05:26;;;;;;;24.70;3.17;;;;;;;4.07;100.00;100827.50;5348939;28;20020;-85
2022/01/31 07:07:58;;;;;;;18.25;3.03;;;;;;;4.12;100.00;100826.25;5345006;27;20127;-85
2022/01/31 07:10:29;;;;;;;18.48;3.40;;;;;;;4.15;100.00;100827.81;5350403;27;20031;-86
2022/01/31 07:13:03;;;;;;;14.82;3.10;;;;;;;4.26;100.00;100824.47;5348796;27;20039;-86
2022/01/31 07:15:34;;;;;;;18.30;3.92;;;;;;;4.21;100.00;100816.88;5335148;27;20070;-86
2022/01/31 07:18:06;;;;;;;20.70;3.20;;;;;;;4.31;100.00;100817.09;5329350;27;20419;-85
2022/01/31 07:20:42;;;;;;;12.80;2.63;;;;;;;4.20;100.00;100819.63;5326296;27;20055;-85
2022/01/31 07:23:18;;;;;;;11.35;2.50;;;;;;;4.27;100.00;100791.84;5321971;27;20016;-87
2022/01/31 07:25:49;;;;;;;13.75;2.78;;;;;;;4.16;100.00;100797.84;5324340;28;20024;-86
2022/01/31 07:28:21;;;;;;;17.30;2.65;;;;;;;4.21;100.00;100802.81;5311993;27;20392;-85
2022/01/31 07:30:52;;;;;;;11.45;2.40;;;;;;;4.20;100.00;100801.97;5325189;28;20169;-87
2022/01/31 07:33:24;;;;;;;15.10;3.72;;;;;;;4.30;100.00;100808.34;5326669;27;20024;-86
2022/01/31 07:35:56;;;;;;;21.85;3.60;;;;;;;4.22;100.00;100807.16;5327542;28;20034;-85
2022/01/31 07:38:27;;;;;;;21.50;3.38;;;;;;;4.12;100.00;100820.97;5328020;27;20074;-84
2022/01/31 07:40:59;;;;;;;26.38;3.47;;;;;;;4.11;100.00;100836.91;5328375;28;20060;-84
2022/01/31 07:43:32;;;;;;;24.20;3.38;;;;;;;4.01;100.00;100838.44;5326322;28;20089;-84
2022/01/31 07:46:04;;;;;;;9.63;2.08;;;;;;;4.05;100.00;100818.81;5326236;27;20115;-84
2022/01/31 07:48:35;;;;;;;8.48;2.25;;;;;;;4.15;100.00;100841.91;5325940;27;20036;-84
2022/01/31 07:51:08;;;;;;;13.95;2.70;;;;;;;4.04;100.00;100848.81;5326363;27;20063;-84
2022/01/31 07:53:40;;;;;;;22.95;3.80;;;;;;;4.06;100.00;100839.00;5320843;28;20042;-83
2022/01/31 07:56:11;;;;;;;22.83;3.88;;;;;;;3.90;100.00;100837.34;5324297;27;20024;-84
2022/01/31 07:58:43;;;;;;;27.20;4.18;;;;;;;4.01;100.00;100846.38;5323281;28;20027;-85
2022/01/31 08:01:15;;;;;;;20.77;3.03;;;;;;;3.96;100.00;100844.88;5325610;27;20020;-85
2022/01/31 08:03:47;;;;;;;24.15;4.50;;;;;;;3.94;100.00;100823.03;5322782;27;20038;-85
2022/01/31 08:06:18;;;;;;;20.63;3.40;;;;;;;4.09;100.00;100836.16;5317801;27;20154;-85
2022/01/31 08:08:50;;;;;;;32.55;4.32;;;;;;;4.09;100.00;100838.81;5323779;28;20043;-85
2022/01/31 08:11:24;;;;;;;21.70;4.05;;;;;;;4.10;100.00;100853.69;5319665;28;20019;-85
2022/01/31 08:13:59;;;;;;;22.65;3.20;;;;;;;4.03;100.00;100836.56;5324654;27;20362;-84
2022/01/31 08:16:32;;;;;;;19.38;3.60;;;;;;;4.12;100.00;100830.66;5324963;27;20036;-84
2022/01/31 08:19:07;;;;;;;23.60;4.00;;;;;;;4.03;100.00;100831.28;5324475;27;20146;-85
2022/01/31 08:21:39;;;;;;;26.90;4.00;;;;;;;4.05;100.00;100848.72;5325258;27;20055;-85
2022/01/31 08:24:10;;;;;;;29.13;4.75;;;;;;;4.03;100.00;100847.94;5325070;27;20056;-86
2022/01/31 08:26:42;;;;;;;18.65;4.45;;;;;;;4.07;100.00;100833.63;5317979;28;20031;-84
2022/01/31 08:29:21;;;;;;;22.35;3.63;;;;;;;4.10;100.00;100851.03;5318138;27;20035;-85
2022/01/31 08:31:53;;;;;;;22.50;4.00;;;;;;;4.21;100.00;100858.25;5326060;27;20322;-86
2022/01/31 08:35:47;;;;;;;31.85;6.10;;;;;;;4.09;100.00;100854.66;5324661;27;20384;-87
2022/01/31 08:37:15;;;;;;;41.88;6.22;;;;;;;4.11;100.00;100853.59;5311309;28;20040;-87
2022/01/31 08:39:47;;;;;;;27.02;4.68;;;;;;;4.16;100.00;100872.63;5327113;27;20020;-87
2022/01/31 08:42:18;;;;;;;25.15;4.40;;;;;;;4.27;100.00;100876.34;5323688;28;20038;-86
2022/01/31 08:44:50;;;;;;;29.00;6.25;;;;;;;4.13;100.00;100858.75;5324714;28;20541;-85
2022/01/31 08:47:21;;;;;;;26.63;4.40;;;;;;;4.21;100.00;100868.81;5322373;27;20101;-86
2022/01/31 08:49:52;;;;;;;33.58;5.07;;;;;;;4.07;100.00;100865.31;5325103;27;20332;-85
2022/01/31 08:52:24;;;;;;;41.30;6.70;;;;;;;4.18;100.00;100863.75;5326255;27;20021;-87
2022/01/31 08:54:55;;;;;;;32.03;4.22;;;;;;;4.17;100.00;100862.88;5326418;28;20052;-85
2022/01/31 08:57:27;;;;;;;26.27;4.63;;;;;;;4.11;100.00;100864.16;5323706;27;20111;-86
2022/01/31 09:00:00;;;;;;;28.23;4.80;;;;;;;4.20;100.00;100864.50;5319897;28;20028;-84
2022/01/31 09:02:48;;;;;;;26.02;3.97;;;;;;;4.24;100.00;100882.66;5326690;28;20310;-85
2022/01/31 09:05:20;;;;;;;22.20;3.95;;;;;;;4.15;100.00;100892.06;5324197;27;20024;-86
2022/01/31 09:07:51;;;;;;;30.67;4.50;;;;;;;4.21;100.00;100898.72;5323912;27;20032;-87
2022/01/31 09:10:22;;;;;;;26.05;4.57;;;;;;;4.18;100.00;100906.84;5324907;27;20119;-87
2022/01/31 09:12:54;;;;;;;29.48;4.38;;;;;;;4.15;100.00;100905.25;5322553;28;20070;-85
2022/01/31 09:15:25;;;;;;;30.92;4.88;;;;;;;4.18;100.00;100908.63;5322490;27;41731;-87
2022/01/31 09:17:57;;;;;;;24.85;4.18;;;;;;;4.25;100.00;100891.44;5323838;27;20119;-85
2022/01/31 09:20:28;;;;;;;29.00;3.65;;;;;;;4.21;100.00;100893.44;5321492;27;20402;-85
2022/01/31 09:22:59;;;;;;;25.33;4.13;;;;;;;4.22;100.00;100881.09;5324386;27;20024;-86
2022/01/31 09:25:31;;;;;;;18.05;3.58;;;;;;;4.31;100.00;100888.38;5330691;27;20066;-85
2022/01/31 09:28:03;;;;;;;20.67;3.33;;;;;;;4.26;100.00;100883.44;5332526;27;20039;-86
2022/01/31 09:30:35;;;;;;;32.35;4.90;;;;;;;4.25;100.00;100881.72;5332854;27;20024;-86
2022/01/31 09:33:06;;;;;;;24.08;4.50;;;;;;;4.27;100.00;100879.81;5332052;27;20077;-86
2022/01/31 09:35:39;;;;;;;20.08;3.70;;;;;;;4.44;100.00;100901.66;5330851;28;20048;-85
2022/01/31 09:38:13;;;;;;;34.17;4.20;;;;;;;4.32;100.00;100876.88;5331799;27;20081;-86
2022/01/31 09:40:44;;;;;;;31.45;4.45;;;;;;;4.34;100.00;100896.13;5330820;28;20469;-85
2022/01/31 09:46:03;;;;;;;29.60;4.70;;;;;;;4.40;100.00;100918.63;5332550;27;20024;-85
2022/01/31 09:48:38;;;;;;;24.70;4.15;;;;;;;4.28;100.00;100922.94;5311155;28;20036;-85
2022/01/31 09:51:12;;;;;;;21.63;3.58;;;;;;;4.43;100.00;100921.91;5312078;28;20027;-85
2022/01/31 09:53:48;;;;;;;23.25;3.60;;;;;;;4.34;100.00;100941.84;5309619;28;20047;-85
2022/01/31 09:56:22;;;;;;;24.52;4.55;;;;;;;4.20;100.00;100917.31;5311004;28;20020;-86
2022/01/31 09:58:55;;;;;;;37.22;5.28;;;;;;;4.19;100.00;100939.34;5311085;28;20025;-86
2022/01/31 10:01:28;;;;;;;24.58;5.45;;;;;;;4.12;100.00;100954.75;5324622;28;20380;-85
2022/01/31 10:04:03;;;;;;;21.92;3.65;;;;;;;4.22;100.00;100960.28;5316427;27;20028;-85
2022/01/31 10:06:37;;;;;;;46.38;6.68;;;;;;;4.14;100.00;100972.19;5310421;28;20048;-85
2022/01/31 10:09:20;;;;;;;33.85;5.85;;;;;;;4.11;100.00;100976.81;5310886;28;20029;-85
2022/01/31 10:11:55;;;;;;;24.80;4.70;;;;;;;4.07;100.00;100970.88;5310754;28;20472;-85
2022/01/31 10:17:22;;;;;;;36.80;5.35;;;;;;;4.13;100.00;100977.56;5332053;28;20016;-85
2022/01/31 10:19:56;;;;;;;40.60;6.78;;;;;;;4.16;100.00;100970.28;5332321;27;20463;-85
2022/01/31 10:22:30;;;;;;;37.53;5.43;;;;;;;4.14;100.00;100985.41;5332392;27;20070;-85
2022/01/31 10:25:07;;;;;;;40.58;7.57;;;;;;;4.15;100.00;100986.22;5331473;27;20040;-85
2022/01/31 10:27:45;;;;;;;39.92;6.75;;;;;;;4.18;100.00;101001.88;5331502;27;20016;-85
2022/01/31 10:30:19;;;;;;;36.53;7.03;;;;;;;4.24;100.00;101009.41;5331149;27;20070;-85
2022/01/31 10:32:53;;;;;;;42.55;7.50;;;;;;;4.44;100.00;101007.31;5330089;27;20035;-85
2022/01/31 10:35:31;;;;;;;48.53;7.30;;;;;;;4.25;100.00;101008.47;5330306;27;20095;-85
2022/01/31 10:38:10;;;;;;;43.53;6.90;;;;;;;4.19;100.00;101021.22;5325153;28;20035;-85
2022/01/31 10:52:09;;;;;;;32.25;6.10;;;;;;;4.33;100.00;101018.53;5328354;28;20056;-85
2022/01/31 10:54:42;;;;;;;40.58;7.18;;;;;;;4.38;100.00;101019.09;5327630;28;20026;-85
2022/01/31 10:57:17;;;;;;;40.70;7.78;;;;;;;4.43;100.00;101029.38;5327865;28;20031;-85
2022/01/31 10:59:50;;;;;;;34.92;5.90;;;;;;;4.39;100.00;101036.66;5326761;27;20020;-85
2022/01/31 11:02:25;;;;;;;41.67;6.75;;;;;;;4.37;100.00;101049.09;5319444;27;20036;-85
2022/01/31 11:04:56;;;;;;;30.67;5.13;;;;;;;4.41;100.00;101040.03;5305626;28;20032;-85
2022/01/31 11:07:29;;;;;;;37.85;6.28;;;;;;;4.48;100.00;101032.56;5311228;28;20047;-85
2022/01/31 11:10:00;;;;;;;35.40;6.03;;;;;;;4.34;100.00;101022.88;5325946;27;20044;-85
2022/01/31 11:12:32;;;;;;;34.13;5.97;;;;;;;4.50;100.00;101042.06;5325883;28;20367;-85
2022/01/31 11:15:05;;;;;;;35.85;6.40;;;;;;;4.48;100.00;101053.69;5327296;27;20028;-84
2022/01/31 11:17:37;;;;;;;38.17;6.60;;;;;;;4.50;100.00;101043.88;5326973;27;20028;-84
2022/01/31 11:20:09;;;;;;;36.85;6.30;;;;;;;4.60;100.00;101050.28;5327362;27;20025;-85
2022/01/31 11:22:42;;;;;;;34.85;5.35;;;;;;;4.67;100.00;101051.56;5326622;27;20016;-85
2022/01/31 11:25:19;;;;;;;35.55;6.68;;;;;;;4.68;100.00;101061.19;5326481;27;20376;-85
2022/01/31 11:27:53;;;;;;;32.38;4.93;;;;;;;4.70;100.00;101051.38;5326679;28;20031;-84
2022/01/31 11:30:25;;;;;;;42.85;8.10;;;;;;;4.73;100.00;101059.13;5326762;27;20495;-85
2022/01/31 11:32:56;;;;;;;38.03;5.78;;;;;;;4.76;100.00;101073.91;5326527;27;20129;-85
2022/01/31 11:35:28;;;;;;;39.17;8.50;;;;;;;4.68;100.00;101061.19;5326829;27;20444;-85
2022/01/31 11:38:00;;;;;;;40.05;7.05;;;;;;;4.73;100.00;101074.97;5325940;28;20016;-85
2022/01/31 11:40:31;;;;;;;31.33;5.80;;;;;;;4.72;100.00;101075.06;5326841;27;20064;-85
2022/01/31 11:43:03;;;;;;;36.63;7.25;;;;;;;4.74;100.00;101079.28;5326575;27;20380;-84
2022/01/31 11:45:39;;;;;;;34.83;6.95;;;;;;;4.61;100.00;101082.81;5326181;27;20127;-85
2022/01/31 11:48:18;;;;;;;34.30;5.50;;;;;;;4.69;100.00;101076.09;5325841;27;20357;-85
2022/01/31 11:50:53;;;;;;;40.08;6.85;;;;;;;4.52;100.00;101071.91;5324655;28;20020;-85
2022/01/31 11:53:37;;;;;;;38.08;6.68;;;;;;;4.52;100.00;101079.84;5325973;27;20028;-85
2022/01/31 11:56:15;;;;;;;38.63;6.90;;;;;;;4.59;100.00;101096.13;5325823;27;20063;-85
2022/01/31 11:58:49;;;;;;;45.00;7.85;;;;;;;4.59;100.00;101095.28;5325815;27;20027;-85
2022/01/31 12:01:23;;;;;;;38.28;6.22;;;;;;;4.58;100.00;101099.72;5326152;27;20022;-84
2022/01/31 12:03:58;;;;;;;48.58;8.55;;;;;;;4.53;100.00;101113.22;5325930;27;20404;-84